createdAt,value
2018-02-11T00:00:43.306Z,0
2018-02-11T00:01:43.906Z,0
2018-02-11T00:02:44.500Z,0
2018-02-11T00:03:45.098Z,0
2018-02-11T00:04:45.683Z,0
2018-02-11T00:05:46.297Z,0
2018-02-11T00:06:46.884Z,0
2018-02-11T00:07:47.480Z,0
2018-02-11T00:08:48.080Z,0
2018-02-11T00:09:48.683Z,0
2018-02-11T00:10:49.286Z,0
2018-02-11T00:11:49.878Z,0
2018-02-11T00:12:50.474Z,0
2018-02-11T00:13:51.067Z,0
2018-02-11T00:14:51.666Z,0
2018-02-11T00:15:52.267Z,0
2018-02-11T00:16:52.868Z,0
2018-02-11T00:17:53.467Z,0
2018-02-11T00:18:54.066Z,0
2018-02-11T00:19:54.655Z,0
2018-02-11T00:20:55.245Z,0
2018-02-11T00:21:55.847Z,0
2018-02-11T00:22:56.444Z,0
2018-02-11T00:23:57.041Z,0
2018-02-11T00:24:57.666Z,0
2018-02-11T00:25:58.235Z,0
2018-02-11T00:26:58.835Z,0
2018-02-11T00:27:59.430Z,0
2018-02-11T00:29:00.032Z,0
2018-02-11T00:30:00.648Z,0
2018-02-11T00:31:01.242Z,0
2018-02-11T00:32:01.835Z,0
2018-02-11T00:33:02.432Z,0
2018-02-11T00:34:03.022Z,0
2018-02-11T00:35:03.620Z,0
2018-02-11T00:36:04.222Z,0
2018-02-11T00:37:04.820Z,0
2018-02-11T00:38:05.423Z,0
2018-02-11T00:39:06.015Z,0
2018-02-11T00:40:06.606Z,0
2018-02-11T00:41:07.233Z,0
2018-02-11T00:42:07.818Z,0
2018-02-11T00:43:08.423Z,0
2018-02-11T00:44:09.021Z,0
2018-02-11T00:45:09.621Z,0
2018-02-11T00:46:10.203Z,0
2018-02-11T00:47:10.808Z,0
2018-02-11T00:48:11.400Z,0
2018-02-11T00:49:12.003Z,0
2018-02-11T00:50:12.606Z,0
2018-02-11T00:51:13.213Z,0
2018-02-11T00:52:13.821Z,0
2018-02-11T00:53:14.424Z,0
2018-02-11T00:54:15.016Z,0
2018-02-11T00:55:15.615Z,0
2018-02-11T00:56:16.208Z,0
2018-02-11T00:57:16.811Z,0
2018-02-11T00:58:17.422Z,0
2018-02-11T00:59:18.022Z,0
2018-02-11T01:00:18.620Z,0
2018-02-11T01:01:19.230Z,0
2018-02-11T01:02:19.830Z,0
2018-02-11T01:03:20.431Z,0
2018-02-11T01:04:21.020Z,0
2018-02-11T01:05:21.648Z,0
2018-02-11T01:06:22.220Z,0
2018-02-11T01:07:22.823Z,0
2018-02-11T01:08:23.422Z,0
2018-02-11T01:09:24.004Z,0
2018-02-11T01:10:24.603Z,0
2018-02-11T01:11:25.197Z,0
2018-02-11T01:12:25.791Z,0
2018-02-11T01:13:26.391Z,0
2018-02-11T01:14:26.984Z,0
2018-02-11T01:15:27.592Z,0
2018-02-11T01:16:28.185Z,0
2018-02-11T01:17:28.774Z,0
2018-02-11T01:18:29.371Z,0
2018-02-11T01:19:29.968Z,0
2018-02-11T01:20:30.582Z,0
2018-02-11T01:21:31.166Z,0
2018-02-11T01:22:31.767Z,0
2018-02-11T01:23:32.365Z,0
2018-02-11T01:24:32.952Z,0
2018-02-11T01:25:33.547Z,0
2018-02-11T01:26:34.143Z,0
2018-02-11T01:27:34.740Z,0
2018-02-11T01:28:35.334Z,0
2018-02-11T01:29:35.925Z,0
2018-02-11T01:30:36.537Z,0
2018-02-11T01:31:37.123Z,0
2018-02-11T01:32:37.722Z,0
2018-02-11T01:33:38.324Z,0
2018-02-11T01:34:38.922Z,0
2018-02-11T01:35:39.509Z,0
2018-02-11T01:36:40.145Z,0
2018-02-11T01:37:40.712Z,0
2018-02-11T01:38:41.309Z,0
2018-02-11T01:39:41.900Z,0
2018-02-11T01:40:42.505Z,0
2018-02-11T01:41:43.103Z,0
2018-02-11T01:42:43.699Z,0
2018-02-11T01:43:44.294Z,0
2018-02-11T01:44:44.888Z,0
2018-02-11T01:45:45.510Z,0
2018-02-11T01:46:46.097Z,0
2018-02-11T01:47:46.682Z,0
2018-02-11T01:48:47.281Z,0
2018-02-11T01:49:47.876Z,0
2018-02-11T01:50:48.476Z,0
2018-02-11T01:51:49.076Z,0
2018-02-11T01:52:49.677Z,0
2018-02-11T01:53:50.289Z,0
2018-02-11T01:54:50.879Z,0
2018-02-11T01:55:51.498Z,0
2018-02-11T01:56:52.076Z,0
2018-02-11T01:57:52.674Z,0
2018-02-11T01:58:53.272Z,0
2018-02-11T01:59:53.884Z,0
2018-02-11T02:00:54.470Z,0
2018-02-11T02:01:55.054Z,0
2018-02-11T02:02:55.646Z,0
2018-02-11T02:03:56.254Z,0
2018-02-11T02:04:56.846Z,0
2018-02-11T02:05:57.436Z,0
2018-02-11T02:06:58.031Z,0
2018-02-11T02:07:58.629Z,0
2018-02-11T02:08:59.225Z,0
2018-02-11T02:09:59.859Z,0
2018-02-11T02:11:00.432Z,0
2018-02-11T02:12:01.035Z,0
2018-02-11T02:13:01.633Z,0
2018-02-11T02:14:02.228Z,0
2018-02-11T02:15:02.830Z,0
2018-02-11T02:16:03.427Z,0
2018-02-11T02:17:04.033Z,0
2018-02-11T02:18:04.633Z,0
2018-02-11T02:19:05.261Z,0
2018-02-11T02:20:05.840Z,0
2018-02-11T02:21:06.432Z,0
2018-02-11T02:22:07.025Z,0
2018-02-11T02:23:07.619Z,0
2018-02-11T02:24:08.211Z,0
2018-02-11T02:25:08.808Z,0
2018-02-11T02:26:09.399Z,0
2018-02-11T02:27:09.996Z,0
2018-02-11T02:28:10.590Z,0
2018-02-11T02:29:11.190Z,0
2018-02-11T02:30:11.791Z,0
2018-02-11T02:31:12.384Z,0
2018-02-11T02:32:12.980Z,0
2018-02-11T02:33:13.573Z,0
2018-02-11T02:34:14.158Z,0
2018-02-11T02:35:14.757Z,0
2018-02-11T02:36:15.362Z,0
2018-02-11T02:37:15.938Z,0
2018-02-11T02:38:16.540Z,0
2018-02-11T02:39:17.141Z,0
2018-02-11T02:40:17.734Z,0
2018-02-11T02:41:18.324Z,0
2018-02-11T02:42:18.927Z,0
2018-02-11T02:43:19.524Z,0
2018-02-11T02:44:20.122Z,0
2018-02-11T02:45:20.723Z,0
2018-02-11T02:46:21.323Z,0
2018-02-11T02:47:21.911Z,0
2018-02-11T02:48:22.503Z,0
2018-02-11T02:49:23.097Z,0
2018-02-11T02:50:23.695Z,0
2018-02-11T02:51:24.304Z,0
2018-02-11T02:52:24.964Z,0
2018-02-11T02:53:25.548Z,0
2018-02-11T02:54:26.107Z,0
2018-02-11T02:55:26.711Z,0
2018-02-11T02:56:27.310Z,0
2018-02-11T02:57:27.912Z,0
2018-02-11T02:58:28.499Z,0
2018-02-11T02:59:29.096Z,0
2018-02-11T03:00:29.685Z,0
2018-02-11T03:01:30.301Z,0
2018-02-11T03:02:30.883Z,0
2018-02-11T03:03:31.475Z,0
2018-02-11T03:04:32.069Z,0
2018-02-11T03:05:32.676Z,0
2018-02-11T03:06:33.282Z,0
2018-02-11T03:07:33.872Z,0
2018-02-11T03:08:34.708Z,0
2018-02-11T03:09:35.299Z,0
2018-02-11T03:10:35.894Z,0
2018-02-11T03:11:36.491Z,0
2018-02-11T03:12:37.090Z,0
2018-02-11T03:13:37.680Z,0
2018-02-11T03:14:38.281Z,0
2018-02-11T03:15:38.881Z,0
2018-02-11T03:16:39.474Z,0
2018-02-11T03:17:40.063Z,0
2018-02-11T03:18:40.656Z,0
2018-02-11T03:19:41.250Z,0
2018-02-11T03:20:41.849Z,0
2018-02-11T03:21:42.437Z,0
2018-02-11T03:22:43.031Z,0
2018-02-11T03:23:43.619Z,0
2018-02-11T03:24:44.223Z,0
2018-02-11T03:25:44.826Z,0
2018-02-11T03:26:45.428Z,0
2018-02-11T03:27:46.017Z,0
2018-02-11T03:28:46.603Z,0
2018-02-11T03:29:47.206Z,0
2018-02-11T03:30:47.804Z,0
2018-02-11T03:31:48.410Z,0
2018-02-11T03:32:49.004Z,0
2018-02-11T03:33:49.604Z,0
2018-02-11T03:34:50.198Z,0
2018-02-11T03:35:50.790Z,0
2018-02-11T03:36:51.402Z,0
2018-02-11T03:37:51.992Z,0
2018-02-11T03:38:52.601Z,0
2018-02-11T03:39:53.201Z,0
2018-02-11T03:40:53.805Z,0
2018-02-11T03:41:54.398Z,0
2018-02-11T03:42:54.993Z,0
2018-02-11T03:43:55.596Z,0
2018-02-11T03:44:56.185Z,0
2018-02-11T03:45:56.777Z,0
2018-02-11T03:46:57.374Z,0
2018-02-11T03:47:57.973Z,0
2018-02-11T03:48:58.569Z,0
2018-02-11T03:49:59.166Z,0
2018-02-11T03:50:59.763Z,0
2018-02-11T03:52:00.373Z,0
2018-02-11T03:53:00.981Z,0
2018-02-11T03:54:01.566Z,0
2018-02-11T03:55:02.165Z,0
2018-02-11T03:56:02.765Z,0
2018-02-11T03:57:03.344Z,0
2018-02-11T03:58:03.942Z,0
2018-02-11T03:59:04.542Z,0
2018-02-11T04:00:05.138Z,0
2018-02-11T04:01:05.761Z,0
2018-02-11T04:02:06.338Z,0
2018-02-11T04:03:06.933Z,0
2018-02-11T04:04:07.537Z,0
2018-02-11T04:05:08.142Z,0
2018-02-11T04:06:08.736Z,0
2018-02-11T04:07:09.326Z,0
2018-02-11T04:08:09.925Z,0
2018-02-11T04:09:10.518Z,0
2018-02-11T04:10:11.116Z,0
2018-02-11T04:11:11.742Z,0
2018-02-11T04:12:12.314Z,0
2018-02-11T04:13:12.908Z,0
2018-02-11T04:14:13.499Z,0
2018-02-11T04:15:14.117Z,0
2018-02-11T04:16:14.703Z,0
2018-02-11T04:17:15.319Z,0
2018-02-11T04:18:15.920Z,0
2018-02-11T04:19:16.545Z,0
2018-02-11T04:20:17.149Z,0
2018-02-11T04:21:17.752Z,0
2018-02-11T04:22:18.376Z,0
2018-02-11T04:23:18.978Z,0
2018-02-11T04:24:19.580Z,0
2018-02-11T04:25:20.186Z,0
2018-02-11T04:26:20.785Z,0
2018-02-11T04:27:21.388Z,0
2018-02-11T04:28:22.012Z,0
2018-02-11T04:29:22.616Z,0
2018-02-11T04:30:23.217Z,0
2018-02-11T04:31:23.820Z,0
2018-02-11T04:32:24.422Z,0
2018-02-11T04:33:25.029Z,0
2018-02-11T04:34:25.635Z,0
2018-02-11T04:35:26.219Z,0
2018-02-11T04:36:26.818Z,0
2018-02-11T04:37:27.413Z,0
2018-02-11T04:38:28.006Z,0
2018-02-11T04:39:28.607Z,0
2018-02-11T04:40:29.207Z,0
2018-02-11T04:41:29.810Z,0
2018-02-11T04:42:30.408Z,0
2018-02-11T04:43:31.005Z,0
2018-02-11T04:44:31.605Z,0
2018-02-11T04:45:32.203Z,0
2018-02-11T04:46:32.802Z,0
2018-02-11T04:47:33.391Z,0
2018-02-11T04:48:33.984Z,0
2018-02-11T04:49:34.573Z,0
2018-02-11T04:50:35.159Z,0
2018-02-11T04:51:35.749Z,0
2018-02-11T04:52:36.341Z,0
2018-02-11T04:53:36.936Z,0
2018-02-11T04:54:37.533Z,0
2018-02-11T04:55:38.135Z,0
2018-02-11T04:56:38.743Z,0
2018-02-11T04:57:39.338Z,0
2018-02-11T04:58:39.944Z,0
2018-02-11T04:59:40.549Z,0
2018-02-11T05:00:41.140Z,0
2018-02-11T05:01:41.740Z,0
2018-02-11T05:02:42.340Z,0
2018-02-11T05:03:42.945Z,0
2018-02-11T05:04:43.542Z,0
2018-02-11T05:05:44.130Z,0
2018-02-11T05:06:44.719Z,0
2018-02-11T05:07:45.320Z,0
2018-02-11T05:08:45.922Z,0
2018-02-11T05:09:46.508Z,0
2018-02-11T05:10:47.103Z,0
2018-02-11T05:11:47.703Z,0
2018-02-11T05:12:48.303Z,0
2018-02-11T05:13:48.898Z,0
2018-02-11T05:14:49.492Z,0
2018-02-11T05:15:50.093Z,0
2018-02-11T05:16:50.678Z,0
2018-02-11T05:17:51.283Z,0
2018-02-11T05:18:51.881Z,0
2018-02-11T05:19:52.484Z,0
2018-02-11T05:20:53.085Z,0
2018-02-11T05:21:53.683Z,0
2018-02-11T05:22:54.282Z,0
2018-02-11T05:23:54.883Z,0
2018-02-11T05:24:55.472Z,0
2018-02-11T05:25:56.064Z,0
2018-02-11T05:26:56.662Z,0
2018-02-11T05:27:57.255Z,0
2018-02-11T05:28:57.855Z,0
2018-02-11T05:29:58.453Z,0
2018-02-11T05:30:59.049Z,0
2018-02-11T05:31:59.641Z,0
2018-02-11T05:33:00.234Z,0
2018-02-11T05:34:00.829Z,0
2018-02-11T05:35:01.421Z,0
2018-02-11T05:36:02.008Z,0
2018-02-11T05:37:02.615Z,0
2018-02-11T05:38:03.209Z,0
2018-02-11T05:39:03.803Z,0
2018-02-11T05:40:04.397Z,0
2018-02-11T05:41:04.992Z,0
2018-02-11T05:42:05.574Z,0
2018-02-11T05:43:06.166Z,0
2018-02-11T05:44:06.772Z,0
2018-02-11T05:45:07.371Z,0
2018-02-11T05:46:07.977Z,0
2018-02-11T05:47:08.568Z,0
2018-02-11T05:48:09.184Z,0
2018-02-11T05:49:09.768Z,0
2018-02-11T05:50:10.369Z,0
2018-02-11T05:51:10.966Z,0
2018-02-11T05:52:11.562Z,0
2018-02-11T05:53:12.171Z,0
2018-02-11T05:54:12.753Z,0
2018-02-11T05:55:13.343Z,0
2018-02-11T05:56:13.938Z,0
2018-02-11T05:57:14.526Z,0
2018-02-11T05:58:15.129Z,0
2018-02-11T05:59:15.729Z,0
2018-02-11T06:00:16.333Z,0
2018-02-11T06:01:16.934Z,0
2018-02-11T06:02:17.523Z,0
2018-02-11T06:03:18.112Z,0
2018-02-11T06:04:18.719Z,0
2018-02-11T06:05:19.324Z,0
2018-02-11T06:06:19.915Z,0
2018-02-11T06:07:20.514Z,0
2018-02-11T06:08:21.115Z,0
2018-02-11T06:09:21.699Z,0
2018-02-11T06:10:22.297Z,0
2018-02-11T06:11:22.898Z,0
2018-02-11T06:12:23.494Z,0
2018-02-11T06:13:24.097Z,0
2018-02-11T06:14:24.689Z,0
2018-02-11T06:15:25.284Z,0
2018-02-11T06:16:25.896Z,0
2018-02-11T06:17:26.488Z,0
2018-02-11T06:18:27.087Z,0
2018-02-11T06:19:27.692Z,0
2018-02-11T06:20:28.288Z,0
2018-02-11T06:21:28.877Z,0
2018-02-11T06:22:29.467Z,0
2018-02-11T06:23:30.068Z,0
2018-02-11T06:24:30.663Z,0
2018-02-11T06:25:31.268Z,0
2018-02-11T06:26:31.867Z,0
2018-02-11T06:27:32.465Z,0
2018-02-11T06:28:33.055Z,0
2018-02-11T06:29:33.654Z,0
2018-02-11T06:30:34.257Z,0
2018-02-11T06:31:34.860Z,0
2018-02-11T06:32:35.457Z,0
2018-02-11T06:33:36.066Z,0
2018-02-11T06:34:36.657Z,0
2018-02-11T06:35:37.248Z,0
2018-02-11T06:36:37.854Z,0
2018-02-11T06:37:38.444Z,0
2018-02-11T06:38:39.047Z,0
2018-02-11T06:39:39.649Z,0
2018-02-11T06:40:40.253Z,0
2018-02-11T06:41:40.854Z,0
2018-02-11T06:42:41.453Z,0
2018-02-11T06:43:42.053Z,0
2018-02-11T06:44:42.657Z,0
2018-02-11T06:45:43.247Z,5
2018-02-11T06:46:43.840Z,5
2018-02-11T06:47:44.445Z,5
2018-02-11T06:48:45.045Z,5
2018-02-11T06:49:45.646Z,5
2018-02-11T06:50:46.245Z,10
2018-02-11T06:51:46.843Z,10
2018-02-11T06:52:47.445Z,10
2018-02-11T06:53:48.037Z,10
2018-02-11T06:54:48.639Z,15
2018-02-11T06:55:49.237Z,15
2018-02-11T06:56:49.835Z,15
2018-02-11T06:57:50.423Z,15
2018-02-11T06:58:51.014Z,15
2018-02-11T06:59:51.610Z,10
2018-02-11T07:00:52.213Z,15
2018-02-11T07:01:52.817Z,15
2018-02-11T07:02:53.414Z,10
2018-02-11T07:03:54.022Z,15
2018-02-11T07:04:54.676Z,15
2018-02-11T07:05:55.227Z,20
2018-02-11T07:06:55.831Z,20
2018-02-11T07:07:56.431Z,15
2018-02-11T07:08:57.025Z,15
2018-02-11T07:09:57.628Z,15
2018-02-11T07:10:58.227Z,20
2018-02-11T07:11:58.816Z,20
2018-02-11T07:12:59.414Z,25
2018-02-11T07:14:00.003Z,30
2018-02-11T07:15:00.601Z,35
2018-02-11T07:16:01.204Z,35
2018-02-11T07:17:01.803Z,35
2018-02-11T07:18:02.408Z,40
2018-02-11T07:19:03.012Z,40
2018-02-11T07:20:03.607Z,45
2018-02-11T07:21:04.210Z,55
2018-02-11T07:22:04.815Z,55
2018-02-11T07:23:05.418Z,55
2018-02-11T07:24:06.019Z,55
2018-02-11T07:25:06.623Z,60
2018-02-11T07:26:07.226Z,60
2018-02-11T07:27:07.831Z,55
2018-02-11T07:28:08.448Z,60
2018-02-11T07:29:09.044Z,60
2018-02-11T07:30:09.647Z,55
2018-02-11T07:31:10.252Z,40
2018-02-11T07:32:10.855Z,45
2018-02-11T07:33:11.453Z,40
2018-02-11T07:34:12.055Z,35
2018-02-11T07:35:12.650Z,35
2018-02-11T07:36:13.256Z,30
2018-02-11T07:37:13.857Z,30
2018-02-11T07:38:14.464Z,30
2018-02-11T07:39:15.063Z,30
2018-02-11T07:40:15.654Z,30
2018-02-11T07:41:16.257Z,35
2018-02-11T07:42:16.848Z,30
2018-02-11T07:43:17.456Z,50
2018-02-11T07:44:18.058Z,60
2018-02-11T07:45:18.659Z,60
2018-02-11T07:46:19.259Z,60
2018-02-11T07:47:19.856Z,65
2018-02-11T07:48:20.460Z,65
2018-02-11T07:49:21.057Z,75
2018-02-11T07:50:21.661Z,85
2018-02-11T07:51:22.262Z,105
2018-02-11T07:52:22.859Z,110
2018-02-11T07:53:23.457Z,145
2018-02-11T07:54:24.050Z,260
2018-02-11T07:55:24.658Z,315
2018-02-11T07:56:25.262Z,225
2018-02-11T07:57:25.860Z,220
2018-02-11T07:58:26.460Z,205
2018-02-11T07:59:27.071Z,120
2018-02-11T08:00:27.672Z,75
2018-02-11T08:01:28.279Z,65
2018-02-11T08:02:28.888Z,55
2018-02-11T08:03:29.502Z,55
2018-02-11T08:04:30.097Z,45
2018-02-11T08:05:30.701Z,55
2018-02-11T08:06:31.297Z,75
2018-02-11T08:07:31.902Z,70
2018-02-11T08:08:32.511Z,65
2018-02-11T08:09:33.127Z,65
2018-02-11T08:10:33.730Z,55
2018-02-11T08:11:34.308Z,50
2018-02-11T08:12:34.903Z,75
2018-02-11T08:13:35.510Z,80
2018-02-11T08:14:36.120Z,95
2018-02-11T08:15:36.725Z,90
2018-02-11T08:16:37.319Z,100
2018-02-11T08:17:37.927Z,80
2018-02-11T08:18:38.515Z,65
2018-02-11T08:19:39.114Z,60
2018-02-11T08:20:39.720Z,65
2018-02-11T08:21:40.332Z,60
2018-02-11T08:22:40.935Z,65
2018-02-11T08:23:41.538Z,55
2018-02-11T08:24:42.142Z,50
2018-02-11T08:25:42.746Z,45
2018-02-11T08:26:43.351Z,45
2018-02-11T08:27:43.956Z,50
2018-02-11T08:28:44.555Z,60
2018-02-11T08:29:45.162Z,65
2018-02-11T08:30:45.767Z,75
2018-02-11T08:31:46.368Z,80
2018-02-11T08:32:46.960Z,80
2018-02-11T08:33:47.570Z,80
2018-02-11T08:34:48.182Z,115
2018-02-11T08:35:48.783Z,160
2018-02-11T08:36:49.383Z,200
2018-02-11T08:37:49.999Z,225
2018-02-11T08:38:50.598Z,250
2018-02-11T08:39:51.195Z,255
2018-02-11T08:40:51.802Z,245
2018-02-11T08:41:52.401Z,215
2018-02-11T08:42:53.007Z,200
2018-02-11T08:43:53.611Z,210
2018-02-11T08:44:54.221Z,230
2018-02-11T08:45:54.831Z,230
2018-02-11T08:46:55.446Z,240
2018-02-11T08:47:56.046Z,255
2018-02-11T08:48:56.640Z,235
2018-02-11T08:49:57.246Z,205
2018-02-11T08:50:57.853Z,195
2018-02-11T08:51:58.442Z,185
2018-02-11T08:52:59.049Z,195
2018-02-11T08:53:59.658Z,200
2018-02-11T08:55:00.263Z,220
2018-02-11T08:56:00.860Z,225
2018-02-11T08:57:01.471Z,235
2018-02-11T08:58:02.078Z,230
2018-02-11T08:59:02.683Z,230
2018-02-11T09:00:03.287Z,240
2018-02-11T09:01:03.881Z,250
2018-02-11T09:02:04.477Z,265
2018-02-11T09:03:05.080Z,280
2018-02-11T09:04:05.721Z,270
2018-02-11T09:05:06.307Z,245
2018-02-11T09:06:06.902Z,225
2018-02-11T09:07:07.520Z,235
2018-02-11T09:08:08.103Z,240
2018-02-11T09:09:08.713Z,245
2018-02-11T09:10:09.322Z,265
2018-02-11T09:11:09.931Z,280
2018-02-11T09:12:10.532Z,325
2018-02-11T09:13:11.142Z,325
2018-02-11T09:14:11.747Z,285
2018-02-11T09:15:12.349Z,275
2018-02-11T09:16:12.949Z,255
2018-02-11T09:17:13.560Z,225
2018-02-11T09:18:14.161Z,215
2018-02-11T09:19:14.775Z,240
2018-02-11T09:20:15.382Z,270
2018-02-11T09:21:15.990Z,275
2018-02-11T09:22:16.597Z,240
2018-02-11T09:23:17.199Z,225
2018-02-11T09:24:17.807Z,240
2018-02-11T09:25:18.412Z,210
2018-02-11T09:26:19.025Z,200
2018-02-11T09:27:19.639Z,230
2018-02-11T09:28:20.230Z,310
2018-02-11T09:29:20.848Z,235
2018-02-11T09:30:21.437Z,215
2018-02-11T09:31:22.029Z,190
2018-02-11T09:32:22.630Z,180
2018-02-11T09:33:23.235Z,200
2018-02-11T09:34:23.837Z,245
2018-02-11T09:35:24.454Z,255
2018-02-11T09:36:25.056Z,260
2018-02-11T09:37:25.660Z,295
2018-02-11T09:38:26.262Z,350
2018-02-11T09:39:26.871Z,415
2018-02-11T09:40:27.479Z,335
2018-02-11T09:41:28.086Z,310
2018-02-11T09:42:28.688Z,260
2018-02-11T09:43:29.297Z,240
2018-02-11T09:44:29.907Z,270
2018-02-11T09:45:30.513Z,285
2018-02-11T09:46:31.114Z,300
2018-02-11T09:47:31.716Z,360
2018-02-11T09:48:32.319Z,390
2018-02-11T09:49:32.918Z,450
2018-02-11T09:50:33.512Z,530
2018-02-11T09:51:34.110Z,550
2018-02-11T09:52:34.720Z,480
2018-02-11T09:53:35.327Z,410
2018-02-11T09:54:35.949Z,380
2018-02-11T09:55:36.545Z,335
2018-02-11T09:56:37.155Z,445
2018-02-11T09:57:37.767Z,470
2018-02-11T09:58:38.381Z,430
2018-02-11T09:59:38.989Z,310
2018-02-11T10:00:39.594Z,250
2018-02-11T10:01:40.195Z,240
2018-02-11T10:02:40.794Z,215
2018-02-11T10:03:41.397Z,220
2018-02-11T10:04:42.052Z,215
2018-02-11T10:05:42.620Z,270
2018-02-11T10:06:43.225Z,250
2018-02-11T10:07:43.829Z,240
2018-02-11T10:08:44.425Z,220
2018-02-11T10:09:45.032Z,315
2018-02-11T10:10:45.639Z,375
2018-02-11T10:11:46.240Z,395
2018-02-11T10:12:46.850Z,415
2018-02-11T10:13:47.458Z,410
2018-02-11T10:14:48.066Z,430
2018-02-11T10:15:48.661Z,400
2018-02-11T10:16:49.273Z,370
2018-02-11T10:17:49.869Z,445
2018-02-11T10:18:50.468Z,480
2018-02-11T10:19:51.085Z,495
2018-02-11T10:20:51.695Z,520
2018-02-11T10:21:52.310Z,535
2018-02-11T10:22:52.906Z,500
2018-02-11T10:23:53.518Z,405
2018-02-11T10:24:54.142Z,490
2018-02-11T10:25:54.745Z,720
2018-02-11T10:26:55.350Z,855
2018-02-11T10:27:55.954Z,710
2018-02-11T10:28:56.556Z,565
2018-02-11T10:29:57.166Z,655
2018-02-11T10:30:57.771Z,630
2018-02-11T10:31:58.385Z,615
2018-02-11T10:32:58.994Z,600
2018-02-11T10:33:59.645Z,415
2018-02-11T10:35:00.206Z,515
2018-02-11T10:36:00.808Z,480
2018-02-11T10:37:01.409Z,500
2018-02-11T10:38:02.015Z,555
2018-02-11T10:39:02.623Z,550
2018-02-11T10:40:03.222Z,595
2018-02-11T10:41:03.833Z,585
2018-02-11T10:42:04.478Z,490
2018-02-11T10:43:05.052Z,570
2018-02-11T10:44:05.656Z,670
2018-02-11T10:45:06.273Z,685
2018-02-11T10:46:06.876Z,680
2018-02-11T10:47:07.480Z,615
2018-02-11T10:48:08.086Z,535
2018-02-11T10:49:08.696Z,590
2018-02-11T10:50:09.300Z,710
2018-02-11T10:51:09.910Z,720
2018-02-11T10:52:10.521Z,755
2018-02-11T10:53:11.121Z,635
2018-02-11T10:54:11.737Z,565
2018-02-11T10:55:12.338Z,520
2018-02-11T10:56:12.942Z,535
2018-02-11T10:57:13.553Z,700
2018-02-11T10:58:14.166Z,800
2018-02-11T10:59:14.774Z,1100
2018-02-11T11:00:15.388Z,720
2018-02-11T11:01:15.988Z,960
2018-02-11T11:02:16.597Z,970
2018-02-11T11:03:17.202Z,960
2018-02-11T11:04:17.821Z,950
2018-02-11T11:05:18.433Z,920
2018-02-11T11:06:19.035Z,725
2018-02-11T11:07:19.650Z,825
2018-02-11T11:08:20.255Z,1085
2018-02-11T11:09:20.860Z,1060
2018-02-11T11:10:21.473Z,1200
2018-02-11T11:11:22.085Z,765
2018-02-11T11:12:22.699Z,1315
2018-02-11T11:13:23.306Z,1255
2018-02-11T11:14:23.918Z,965
2018-02-11T11:15:24.530Z,985
2018-02-11T11:16:25.127Z,1045
2018-02-11T11:17:25.737Z,875
2018-02-11T11:18:26.349Z,805
2018-02-11T11:19:26.968Z,935
2018-02-11T11:20:27.578Z,800
2018-02-11T11:21:28.198Z,750
2018-02-11T11:22:28.815Z,735
2018-02-11T11:23:29.428Z,795
2018-02-11T11:24:30.024Z,845
2018-02-11T11:25:30.638Z,740
2018-02-11T11:26:31.253Z,720
2018-02-11T11:27:31.862Z,675
2018-02-11T11:28:32.472Z,620
2018-02-11T11:29:33.076Z,570
2018-02-11T11:30:33.695Z,540
2018-02-11T11:31:34.308Z,550
2018-02-11T11:32:34.921Z,510
2018-02-11T11:33:35.535Z,470
2018-02-11T11:34:36.142Z,425
2018-02-11T11:35:36.751Z,420
2018-02-11T11:36:37.350Z,430
2018-02-11T11:37:37.957Z,440
2018-02-11T11:38:38.573Z,450
2018-02-11T11:39:39.174Z,470
2018-02-11T11:40:39.789Z,490
2018-02-11T11:41:40.394Z,495
2018-02-11T11:42:41.007Z,495
2018-02-11T11:43:41.608Z,515
2018-02-11T11:44:42.218Z,495
2018-02-11T11:45:42.826Z,455
2018-02-11T11:46:43.430Z,485
2018-02-11T11:47:44.037Z,465
2018-02-11T11:48:44.650Z,475
2018-02-11T11:49:45.254Z,475
2018-02-11T11:50:45.861Z,480
2018-02-11T11:51:46.471Z,470
2018-02-11T11:52:47.087Z,505
2018-02-11T11:53:47.690Z,535
2018-02-11T11:54:48.324Z,590
2018-02-11T11:55:48.909Z,610
2018-02-11T11:56:49.522Z,610
2018-02-11T11:57:50.133Z,630
2018-02-11T11:58:50.738Z,640
2018-02-11T11:59:51.353Z,615
2018-02-11T12:00:51.960Z,550
2018-02-11T12:01:52.564Z,585
2018-02-11T12:02:53.183Z,580
2018-02-11T12:03:53.800Z,575
2018-02-11T12:04:54.408Z,565
2018-02-11T12:05:55.018Z,555
2018-02-11T12:06:55.620Z,525
2018-02-11T12:07:56.224Z,490
2018-02-11T12:08:56.835Z,480
2018-02-11T12:09:57.434Z,465
2018-02-11T12:10:58.040Z,465
2018-02-11T12:11:58.646Z,525
2018-02-11T12:12:59.255Z,520
2018-02-11T12:13:59.860Z,440
2018-02-11T12:15:00.473Z,385
2018-02-11T12:16:01.117Z,445
2018-02-11T12:17:01.703Z,445
2018-02-11T12:18:02.315Z,410
2018-02-11T12:19:02.933Z,380
2018-02-11T12:20:03.541Z,455
2018-02-11T12:21:04.147Z,540
2018-02-11T12:22:04.752Z,495
2018-02-11T12:23:05.358Z,395
2018-02-11T12:24:05.969Z,365
2018-02-11T12:25:06.612Z,420
2018-02-11T12:26:07.169Z,385
2018-02-11T12:27:07.799Z,365
2018-02-11T12:28:08.453Z,305
2018-02-11T12:29:09.104Z,285
2018-02-11T12:30:09.633Z,275
2018-02-11T12:31:10.246Z,270
2018-02-11T12:32:10.856Z,330
2018-02-11T12:33:11.472Z,385
2018-02-11T12:34:12.072Z,405
2018-02-11T12:35:12.682Z,405
2018-02-11T12:36:13.287Z,345
2018-02-11T12:37:13.893Z,335
2018-02-11T12:38:14.505Z,310
2018-02-11T12:39:15.106Z,305
2018-02-11T12:40:15.707Z,270
2018-02-11T12:41:16.317Z,275
2018-02-11T12:42:16.922Z,285
2018-02-11T12:43:17.540Z,270
2018-02-11T12:44:18.156Z,265
2018-02-11T12:45:18.758Z,220
2018-02-11T12:46:19.368Z,215
2018-02-11T12:47:19.972Z,205
2018-02-11T12:48:20.579Z,165
2018-02-11T12:49:21.190Z,140
2018-02-11T12:50:21.802Z,145
2018-02-11T12:51:22.401Z,155
2018-02-11T12:52:23.003Z,215
2018-02-11T12:53:23.616Z,285
2018-02-11T12:54:24.220Z,405
2018-02-11T12:55:24.831Z,485
2018-02-11T12:56:25.438Z,545
2018-02-11T12:57:26.082Z,600
2018-02-11T12:58:26.660Z,610
2018-02-11T12:59:27.275Z,610
2018-02-11T13:00:27.880Z,585
2018-02-11T13:01:28.490Z,550
2018-02-11T13:02:29.107Z,530
2018-02-11T13:03:29.714Z,515
2018-02-11T13:04:30.313Z,500
2018-02-11T13:05:30.936Z,465
2018-02-11T13:06:31.534Z,430
2018-02-11T13:07:32.152Z,405
2018-02-11T13:08:32.767Z,395
2018-02-11T13:09:33.376Z,375
2018-02-11T13:10:33.999Z,355
2018-02-11T13:11:34.608Z,365
2018-02-11T13:12:35.257Z,400
2018-02-11T13:13:35.850Z,455
2018-02-11T13:14:36.527Z,510
2018-02-11T13:15:37.109Z,550
2018-02-11T13:16:37.724Z,545
2018-02-11T13:17:38.336Z,565
2018-02-11T13:18:38.945Z,565
2018-02-11T13:19:39.546Z,625
2018-02-11T13:20:40.187Z,640
2018-02-11T13:21:40.868Z,695
2018-02-11T13:22:41.503Z,685
2018-02-11T13:23:42.121Z,675
2018-02-11T13:24:42.727Z,650
2018-02-11T13:25:43.335Z,640
2018-02-11T13:26:43.949Z,620
2018-02-11T13:27:44.566Z,630
2018-02-11T13:28:45.215Z,640
2018-02-11T13:29:45.881Z,645
2018-02-11T13:30:46.465Z,640
2018-02-11T13:31:47.077Z,625
2018-02-11T13:32:47.679Z,620
2018-02-11T13:33:48.288Z,600
2018-02-11T13:34:48.898Z,595
2018-02-11T13:35:49.506Z,600
2018-02-11T13:36:50.109Z,610
2018-02-11T13:37:50.720Z,610
2018-02-11T13:38:51.360Z,615
2018-02-11T13:39:51.951Z,595
2018-02-11T13:40:52.551Z,595
2018-02-11T13:41:53.149Z,590
2018-02-11T13:42:53.757Z,585
2018-02-11T13:43:54.363Z,585
2018-02-11T13:44:54.970Z,590
2018-02-11T13:45:55.588Z,595
2018-02-11T13:46:56.191Z,590
2018-02-11T13:47:56.800Z,595
2018-02-11T13:48:57.408Z,600
2018-02-11T13:49:58.023Z,600
2018-02-11T13:50:58.632Z,595
2018-02-11T13:51:59.239Z,565
2018-02-11T13:52:59.838Z,550
2018-02-11T13:54:00.438Z,550
2018-02-11T13:55:01.056Z,540
2018-02-11T13:56:01.670Z,560
2018-02-11T13:57:02.261Z,575
2018-02-11T13:58:02.866Z,570
2018-02-11T13:59:03.474Z,545
2018-02-11T14:00:04.086Z,525
2018-02-11T14:01:04.713Z,505
2018-02-11T14:02:05.335Z,495
2018-02-11T14:03:05.930Z,485
2018-02-11T14:04:06.539Z,450
2018-02-11T14:05:07.153Z,425
2018-02-11T14:06:07.774Z,435
2018-02-11T14:07:08.389Z,435
2018-02-11T14:08:08.995Z,430
2018-02-11T14:09:09.615Z,445
2018-02-11T14:10:10.231Z,445
2018-02-11T14:11:10.839Z,440
2018-02-11T14:12:11.452Z,450
2018-02-11T14:13:12.060Z,450
2018-02-11T14:14:12.663Z,450
2018-02-11T14:15:13.276Z,440
2018-02-11T14:16:13.891Z,420
2018-02-11T14:17:14.497Z,400
2018-02-11T14:18:15.108Z,385
2018-02-11T14:19:15.713Z,380
2018-02-11T14:20:16.314Z,380
2018-02-11T14:21:16.929Z,375
2018-02-11T14:22:17.536Z,375
2018-02-11T14:23:18.147Z,385
2018-02-11T14:24:18.756Z,380
2018-02-11T14:25:19.367Z,370
2018-02-11T14:26:19.971Z,325